Time;durP1;ratioP1;P1;durP2;ratioP2;P2;SDS_P1;SDS_P2;PMS_P1;PMS_P2;Temp;Humidity;BMP_temperature;BMP_pressure;BME280_temperature;BME280_humidity;BME280_pressure;Samples;Min_cycle;Max_cycle;Signal;HPM_P1;HPM_P2
2022/01/19 00:01:14;;;;;;;47.38;23.80;;;5.60;99.90;;;;;;5069825;28;20063;-78
2022/01/19 00:03:40;;;;;;;44.28;23.65;;;5.60;99.90;;;;;;5086353;28;20031;-77
2022/01/19 00:06:06;;;;;;;47.85;25.70;;;5.60;99.90;;;;;;5086516;28;20028;-76
2022/01/19 00:08:32;;;;;;;51.72;25.13;;;5.60;99.90;;;;;;5104416;28;20065;-77
2022/01/19 00:10:58;;;;;;;52.63;25.58;;;5.60;99.90;;;;;;5069180;28;20246;-78
2022/01/19 00:13:24;;;;;;;48.05;23.55;;;5.60;99.90;;;;;;5085615;28;20070;-76
2022/01/19 00:15:51;;;;;;;44.35;24.08;;;5.60;99.90;;;;;;5084068;28;20091;-77
2022/01/19 00:18:18;;;;;;;47.10;24.98;;;5.60;99.90;;;;;;5069413;28;20034;-78
2022/01/19 00:20:45;;;;;;;46.88;24.08;;;5.60;99.90;;;;;;5069097;28;20200;-77
2022/01/19 00:23:11;;;;;;;43.97;23.35;;;5.80;99.90;;;;;;5086144;28;20016;-78
2022/01/19 00:25:38;;;;;;;45.38;23.58;;;5.80;99.90;;;;;;5074047;28;20079;-78
2022/01/19 00:28:04;;;;;;;46.78;23.67;;;5.70;99.90;;;;;;5053668;28;20263;-77
2022/01/19 00:30:30;;;;;;;46.67;24.17;;;5.70;99.90;;;;;;5078690;28;20024;-77
2022/01/19 00:32:56;;;;;;;39.83;22.63;;;5.70;99.90;;;;;;5072172;28;20381;-78
2022/01/19 00:35:22;;;;;;;42.13;23.05;;;5.80;99.90;;;;;;5072363;28;20048;-77
2022/01/19 00:37:48;;;;;;;42.35;23.48;;;5.80;99.90;;;;;;5090211;28;20066;-77
2022/01/19 00:40:15;;;;;;;39.22;22.83;;;5.80;99.90;;;;;;5072175;28;20020;-77
2022/01/19 00:42:43;;;;;;;45.45;23.35;;;5.80;99.90;;;;;;5089099;28;20214;-78
2022/01/19 00:45:10;;;;;;;40.78;22.45;;;5.80;99.90;;;;;;5072317;28;20052;-77
2022/01/19 00:47:36;;;;;;;42.50;23.17;;;5.80;99.90;;;;;;5060558;28;20074;-77
2022/01/19 00:50:03;;;;;;;45.15;24.52;;;5.90;99.90;;;;;;5072574;28;20021;-78
2022/01/19 00:52:29;;;;;;;41.15;22.60;;;5.90;99.90;;;;;;5055635;28;20031;-78
2022/01/19 00:54:54;;;;;;;44.33;22.55;;;5.90;99.90;;;;;;5090145;28;20211;-78
2022/01/19 00:57:20;;;;;;;38.70;21.95;;;5.90;99.90;;;;;;5072310;28;20066;-78
2022/01/19 00:59:50;;;;;;;42.15;22.70;;;6.00;99.90;;;;;;5090476;28;20247;-78
2022/01/19 01:02:16;;;;;;;38.60;22.17;;;6.00;99.90;;;;;;5055731;28;20274;-77
2022/01/19 01:04:42;;;;;;;36.83;21.65;;;6.00;99.90;;;;;;5071994;28;20036;-78
2022/01/19 01:07:07;;;;;;;40.47;22.02;;;6.10;99.90;;;;;;5072256;28;20033;-78
2022/01/19 01:09:33;;;;;;;38.47;20.77;;;6.00;99.90;;;;;;5071917;28;20024;-78
2022/01/19 01:12:02;;;;;;;42.83;22.75;;;6.00;99.90;;;;;;5055528;28;20033;-77
2022/01/19 01:20:05;;;;;;;39.42;21.25;;;6.00;99.90;;;;;;5074900;28;20035;-77
2022/01/19 01:22:31;;;;;;;37.30;21.27;;;5.90;99.90;;;;;;5089426;28;20024;-77
2022/01/19 01:24:57;;;;;;;41.28;23.17;;;5.90;99.90;;;;;;5089656;28;20365;-77
2022/01/19 01:27:22;;;;;;;38.22;20.55;;;6.00;99.90;;;;;;5081670;28;20043;-77
2022/01/19 01:29:48;;;;;;;36.95;19.63;;;6.10;99.90;;;;;;5069971;28;20020;-77
2022/01/19 01:32:14;;;;;;;35.08;18.83;;;6.20;99.90;;;;;;5104131;28;20039;-77
2022/01/19 01:34:39;;;;;;;34.17;18.50;;;6.20;99.90;;;;;;5101246;28;20076;-77
2022/01/19 01:37:05;;;;;;;32.28;18.48;;;6.30;99.90;;;;;;5097840;28;20020;-77
2022/01/19 01:39:31;;;;;;;36.85;19.55;;;6.30;99.90;;;;;;5072694;28;20234;-78
2022/01/19 01:41:59;;;;;;;35.58;21.33;;;6.30;99.90;;;;;;5085761;28;20074;-77
2022/01/19 01:44:25;;;;;;;36.90;20.60;;;6.20;99.90;;;;;;5085431;28;20028;-78
2022/01/19 01:46:58;;;;;;;38.80;20.48;;;6.10;99.90;;;;;;5064256;28;20305;-77
2022/01/19 01:54:56;;;;;;;36.95;21.23;;;6.20;99.90;;;;;;5074582;28;20033;-77
2022/01/19 01:57:22;;;;;;;42.05;21.60;;;6.10;99.90;;;;;;5052877;28;20192;-77
2022/01/19 01:59:48;;;;;;;40.08;19.58;;;6.10;99.90;;;;;;5052667;28;20024;-77
2022/01/19 02:02:15;;;;;;;43.45;20.50;;;6.10;99.90;;;;;;5068752;28;20020;-78
2022/01/19 02:04:41;;;;;;;35.05;20.23;;;6.10;99.90;;;;;;5068112;28;20107;-77
2022/01/19 02:10:01;;;;;;;40.55;21.80;;;6.00;99.90;;;;;;5070910;28;20020;-77
2022/01/19 02:23:37;;;;;;;37.90;19.98;;;6.10;99.90;;;;;;5071064;28;20077;-78
2022/01/19 02:26:10;;;;;;;39.63;18.00;;;6.10;99.90;;;;;;5079918;28;20052;-77
2022/01/19 02:42:39;;;;;;;25.13;11.93;;;6.80;99.90;;;;;;5084022;28;20017;-77
2022/01/19 02:50:39;;;;;;;23.60;11.40;;;6.80;99.90;;;;;;5082962;28;20357;-77
2022/01/19 02:53:05;;;;;;;20.88;10.18;;;6.90;99.90;;;;;;5085537;28;20303;-77
2022/01/19 02:55:31;;;;;;;24.35;11.23;;;7.00;99.90;;;;;;5085156;28;20258;-77
2022/01/19 02:57:57;;;;;;;19.23;10.93;;;6.90;99.90;;;;;;5085084;28;20304;-77
2022/01/19 03:08:44;;;;;;;21.38;8.75;;;6.90;99.90;;;;;;5084050;28;20105;-77
2022/01/19 03:11:12;;;;;;;18.40;8.85;;;6.90;99.90;;;;;;5084833;28;20012;-77
2022/01/19 03:13:37;;;;;;;22.17;9.75;;;6.90;99.90;;;;;;5083639;28;20029;-77
2022/01/19 03:16:03;;;;;;;17.70;8.55;;;6.90;99.90;;;;;;5084285;28;20069;-77
2022/01/19 03:18:29;;;;;;;19.58;9.30;;;6.90;99.90;;;;;;5083030;28;20024;-77
2022/01/19 03:20:54;;;;;;;16.08;9.18;;;6.90;99.90;;;;;;5083127;28;20008;-77
2022/01/19 03:23:20;;;;;;;17.67;9.00;;;6.90;99.90;;;;;;5066752;28;20028;-77
2022/01/19 03:25:48;;;;;;;19.77;8.82;;;7.00;99.90;;;;;;5087031;28;20047;-77
2022/01/19 03:28:15;;;;;;;16.17;8.98;;;7.00;99.90;;;;;;5087197;28;20270;-77
2022/01/19 03:30:41;;;;;;;19.02;8.63;;;7.00;99.90;;;;;;5066475;28;20303;-77
2022/01/19 03:33:07;;;;;;;19.48;9.05;;;7.10;99.90;;;;;;5083366;28;20222;-78
2022/01/19 03:35:33;;;;;;;20.83;8.68;;;7.10;99.90;;;;;;5083169;28;20024;-77
2022/01/19 03:37:59;;;;;;;18.75;9.13;;;7.30;99.90;;;;;;5084379;28;20255;-77
2022/01/19 03:40:25;;;;;;;18.23;8.75;;;7.30;99.90;;;;;;5066200;28;20039;-77
2022/01/19 03:42:51;;;;;;;15.98;8.57;;;7.20;99.90;;;;;;5066489;28;20025;-78
2022/01/19 03:45:16;;;;;;;17.42;8.98;;;7.30;99.90;;;;;;5083592;28;20089;-77
2022/01/19 03:47:47;;;;;;;20.30;9.05;;;7.30;99.90;;;;;;5070447;28;20207;-78
2022/01/19 03:50:13;;;;;;;19.98;8.75;;;7.20;99.90;;;;;;5066660;28;20365;-78
2022/01/19 03:52:38;;;;;;;17.50;9.00;;;7.20;99.90;;;;;;5066381;28;20089;-77
2022/01/19 03:55:05;;;;;;;20.80;9.40;;;7.20;99.90;;;;;;5066772;28;20215;-78
2022/01/19 03:57:31;;;;;;;18.27;9.60;;;7.10;99.90;;;;;;5049713;28;20242;-77
2022/01/19 03:59:57;;;;;;;18.77;9.30;;;7.00;99.90;;;;;;5083707;28;20012;-78
2022/01/19 04:02:23;;;;;;;20.52;8.93;;;6.90;99.90;;;;;;5065806;28;20020;-78
2022/01/19 04:04:55;;;;;;;17.13;8.57;;;6.90;99.90;;;;;;5066299;28;20048;-78
2022/01/19 04:07:21;;;;;;;29.30;10.77;;;6.90;99.90;;;;;;5083654;28;20027;-78
2022/01/19 04:09:47;;;;;;;16.75;8.77;;;6.90;99.90;;;;;;5083468;28;20025;-77
2022/01/19 04:12:19;;;;;;;17.55;8.90;;;6.90;99.90;;;;;;5066293;28;20055;-78
2022/01/19 04:14:46;;;;;;;19.27;9.35;;;6.90;99.90;;;;;;5050937;28;20095;-78
2022/01/19 04:17:14;;;;;;;18.90;9.27;;;7.00;99.90;;;;;;5066029;28;20219;-79
2022/01/19 04:19:44;;;;;;;20.08;9.10;;;7.00;99.90;;;;;;5064801;28;20020;-78
2022/01/19 04:22:13;;;;;;;15.00;9.20;;;7.10;99.90;;;;;;5050641;28;20025;-77
2022/01/19 04:24:40;;;;;;;16.55;8.38;;;7.10;99.90;;;;;;5050129;28;20056;-78
2022/01/19 04:30:01;;;;;;;17.55;8.57;;;7.20;99.90;;;;;;5096671;28;20028;-78
2022/01/19 04:32:36;;;;;;;21.58;8.95;;;7.20;99.90;;;;;;5080079;28;20076;-77
2022/01/19 04:35:06;;;;;;;17.15;8.77;;;7.10;99.90;;;;;;5076340;28;20021;-77
2022/01/19 04:54:36;;;;;;;18.02;7.72;;;7.20;99.90;;;;;;5055174;28;20025;-77
2022/01/19 05:03:04;;;;;;;21.17;8.73;;;7.30;99.90;;;;;;5054944;28;20020;-77
2022/01/19 05:05:23;;;;;;;15.38;8.57;;;7.30;99.90;;;;;;5068135;28;20025;-77
2022/01/19 05:08:04;;;;;;;15.45;7.70;;;7.30;99.90;;;;;;5065807;28;20047;-77
2022/01/19 05:13:36;;;;;;;17.90;7.65;;;7.30;99.90;;;;;;5054426;28;20013;-77
2022/01/19 05:16:02;;;;;;;16.17;7.85;;;7.20;99.90;;;;;;5058431;28;20032;-76
2022/01/19 05:18:28;;;;;;;18.15;8.70;;;7.20;99.90;;;;;;5069314;28;20046;-77
2022/01/19 05:20:54;;;;;;;16.10;8.18;;;7.20;99.90;;;;;;5067399;28;20237;-77
2022/01/19 05:23:20;;;;;;;14.90;8.70;;;7.20;99.90;;;;;;5069510;28;20017;-77
2022/01/19 05:25:46;;;;;;;13.63;8.57;;;7.20;99.90;;;;;;5100040;28;20352;-77
2022/01/19 05:28:12;;;;;;;19.77;8.90;;;7.20;99.90;;;;;;5089080;28;20016;-77
2022/01/19 05:30:38;;;;;;;18.92;8.88;;;7.20;99.90;;;;;;5085384;28;20091;-77
2022/01/19 05:33:04;;;;;;;17.55;8.32;;;7.30;99.90;;;;;;5085549;28;20046;-77
2022/01/19 05:35:30;;;;;;;17.38;8.40;;;7.30;99.90;;;;;;5085574;28;20021;-78
2022/01/19 05:37:56;;;;;;;16.17;8.32;;;7.20;99.90;;;;;;5086802;28;20066;-79
2022/01/19 05:40:21;;;;;;;17.58;9.05;;;7.20;99.90;;;;;;5084885;28;20032;-78
2022/01/19 05:42:49;;;;;;;20.63;9.27;;;7.10;99.90;;;;;;5085245;28;20032;-78
2022/01/19 05:45:15;;;;;;;20.38;8.43;;;7.00;99.90;;;;;;5085304;28;20346;-78
2022/01/19 05:47:41;;;;;;;19.63;8.77;;;6.90;99.90;;;;;;5072925;28;20024;-78
2022/01/19 05:50:07;;;;;;;17.83;8.73;;;7.00;99.90;;;;;;5068627;28;20024;-79
2022/01/19 05:52:35;;;;;;;19.20;9.10;;;7.00;99.90;;;;;;5068796;28;20210;-79
2022/01/19 05:55:01;;;;;;;18.77;9.50;;;7.00;99.90;;;;;;5035689;28;20048;-78
2022/01/19 05:57:26;;;;;;;18.90;9.40;;;7.10;99.90;;;;;;5068720;28;20027;-79
2022/01/19 05:59:52;;;;;;;15.82;9.13;;;7.00;99.90;;;;;;5068292;28;20024;-79
2022/01/19 06:02:18;;;;;;;20.52;9.63;;;6.90;99.90;;;;;;5051561;28;20020;-79
2022/01/19 06:04:43;;;;;;;16.92;8.85;;;6.90;99.90;;;;;;5051839;28;20028;-79
2022/01/19 06:07:09;;;;;;;17.27;9.13;;;6.80;99.90;;;;;;5068260;28;20017;-78
2022/01/19 06:09:47;;;;;;;17.95;8.70;;;6.90;99.90;;;;;;5051010;28;20020;-78
2022/01/19 06:12:14;;;;;;;19.52;9.85;;;6.90;99.90;;;;;;5086016;28;20016;-79
2022/01/19 06:14:44;;;;;;;21.95;9.77;;;7.00;99.90;;;;;;5067993;28;20048;-78
2022/01/19 06:17:12;;;;;;;16.17;9.38;;;7.00;99.90;;;;;;5051527;28;20039;-78
2022/01/19 06:19:38;;;;;;;20.05;9.35;;;7.00;99.90;;;;;;5065528;28;20026;-78
2022/01/19 06:22:04;;;;;;;20.65;9.50;;;7.00;99.90;;;;;;5035270;28;20043;-79
2022/01/19 06:24:30;;;;;;;20.63;9.82;;;7.00;99.90;;;;;;5050740;28;20039;-78
2022/01/19 06:26:56;;;;;;;19.00;9.35;;;6.90;99.90;;;;;;5085627;28;20016;-79
2022/01/19 06:29:22;;;;;;;18.15;8.85;;;6.80;99.90;;;;;;5051308;28;20045;-78
2022/01/19 06:31:49;;;;;;;20.48;10.25;;;6.60;99.90;;;;;;5067957;28;20020;-79
2022/01/19 06:34:15;;;;;;;25.73;11.10;;;6.50;99.90;;;;;;5067776;28;20338;-79
2022/01/19 06:36:41;;;;;;;25.02;10.77;;;6.40;99.90;;;;;;5085666;28;20012;-78
2022/01/19 06:39:07;;;;;;;27.77;11.20;;;6.30;99.90;;;;;;5067967;28;20028;-78
2022/01/19 06:41:33;;;;;;;21.83;10.02;;;6.10;99.90;;;;;;5066789;28;20249;-78
2022/01/19 06:43:58;;;;;;;25.85;10.48;;;6.10;99.90;;;;;;5085329;28;20083;-78
2022/01/19 06:46:25;;;;;;;23.75;9.77;;;6.10;99.90;;;;;;5050745;28;20017;-78
2022/01/19 06:48:50;;;;;;;21.13;10.25;;;6.00;99.90;;;;;;5067579;28;20028;-77
2022/01/19 06:51:16;;;;;;;23.15;9.90;;;6.00;99.90;;;;;;5050839;28;20322;-76
2022/01/19 06:53:42;;;;;;;26.00;10.18;;;6.10;99.90;;;;;;5050845;28;20043;-76
2022/01/19 06:56:08;;;;;;;20.38;10.40;;;6.20;99.90;;;;;;5050439;28;20070;-77
2022/01/19 06:58:36;;;;;;;22.70;10.75;;;6.20;99.90;;;;;;5067255;28;20032;-78
2022/01/19 07:01:01;;;;;;;26.30;11.65;;;6.20;99.90;;;;;;5050669;28;20094;-77
2022/01/19 07:03:28;;;;;;;66.15;18.35;;;6.40;99.90;;;;;;5050622;28;20296;-78
2022/01/19 07:05:54;;;;;;;86.45;23.77;;;6.50;99.90;;;;;;5084948;28;20257;-78
2022/01/19 07:08:20;;;;;;;64.72;18.40;;;6.40;99.90;;;;;;5067331;28;20029;-78
2022/01/19 07:10:48;;;;;;;52.15;14.95;;;6.40;99.90;;;;;;5066620;28;20095;-78
2022/01/19 07:13:17;;;;;;;50.53;16.83;;;6.50;99.90;;;;;;5050507;28;20020;-78
2022/01/19 07:15:43;;;;;;;37.28;14.43;;;6.60;99.90;;;;;;5067536;28;20012;-78
2022/01/19 07:18:09;;;;;;;46.25;14.90;;;6.60;99.90;;;;;;5067221;28;20062;-78
2022/01/19 07:20:34;;;;;;;52.53;14.27;;;6.70;99.90;;;;;;5048282;28;20020;-79
2022/01/19 07:23:01;;;;;;;44.67;13.57;;;6.70;99.90;;;;;;5050278;28;20214;-79
2022/01/19 07:25:29;;;;;;;37.80;11.77;;;6.70;99.90;;;;;;5084560;28;20105;-78
2022/01/19 07:27:55;;;;;;;34.55;12.00;;;6.70;99.90;;;;;;5088907;28;20024;-78
2022/01/19 07:30:21;;;;;;;30.33;11.23;;;6.70;99.90;;;;;;5077066;28;20046;-78
2022/01/19 07:32:51;;;;;;;38.00;12.57;;;6.60;99.90;;;;;;5091155;28;20021;-78
2022/01/19 07:35:17;;;;;;;34.80;11.77;;;6.60;99.90;;;;;;5090120;28;20021;-77
2022/01/19 07:37:44;;;;;;;29.00;11.52;;;6.60;99.90;;;;;;5088220;28;20020;-79
2022/01/19 07:40:10;;;;;;;31.77;11.93;;;6.70;99.90;;;;;;5086014;28;20307;-79
2022/01/19 07:42:36;;;;;;;29.90;12.80;;;6.80;99.90;;;;;;5083173;28;20035;-79
2022/01/19 07:45:05;;;;;;;28.17;11.35;;;6.80;99.90;;;;;;5083882;28;20024;-78
2022/01/19 07:47:30;;;;;;;24.38;11.18;;;6.80;99.90;;;;;;5071893;28;20024;-78
2022/01/19 07:49:57;;;;;;;25.35;10.48;;;6.90;99.90;;;;;;5084245;28;20206;-78
2022/01/19 07:52:23;;;;;;;28.15;11.05;;;7.00;99.90;;;;;;5066838;28;20234;-78
2022/01/19 07:54:50;;;;;;;26.90;10.93;;;7.10;99.90;;;;;;5066529;28;20189;-77
2022/01/19 07:57:16;;;;;;;23.85;10.55;;;7.20;99.90;;;;;;5050027;28;20020;-78
2022/01/19 07:59:42;;;;;;;21.00;10.43;;;7.20;99.90;;;;;;5066184;28;20028;-78
2022/01/19 08:02:07;;;;;;;20.90;10.88;;;7.20;99.90;;;;;;5083168;28;20021;-79
2022/01/19 08:04:33;;;;;;;22.73;10.32;;;7.30;99.90;;;;;;5065589;28;20020;-84
2022/01/19 08:06:59;;;;;;;23.70;10.85;;;7.30;99.90;;;;;;5049679;28;20020;-81
2022/01/19 08:09:25;;;;;;;24.10;11.13;;;7.30;99.90;;;;;;5066642;28;20028;-77
2022/01/19 08:11:52;;;;;;;25.83;11.13;;;7.20;99.90;;;;;;5060814;28;20016;-81
2022/01/19 08:14:19;;;;;;;22.83;10.88;;;7.30;99.90;;;;;;5069078;28;20031;-82
2022/01/19 08:16:45;;;;;;;20.63;10.93;;;7.20;99.90;;;;;;5049338;28;20016;-83
2022/01/19 08:19:11;;;;;;;17.92;9.90;;;7.20;99.90;;;;;;5065543;28;20034;-79
2022/01/19 08:21:37;;;;;;;22.02;10.57;;;7.30;99.90;;;;;;5063622;28;20021;-79
2022/01/19 08:24:03;;;;;;;23.27;11.63;;;7.30;99.90;;;;;;5049066;28;20024;-81
2022/01/19 08:26:28;;;;;;;17.13;9.45;;;7.40;99.90;;;;;;5081176;28;20231;-76
2022/01/19 08:28:54;;;;;;;21.58;9.52;;;7.50;99.90;;;;;;5065444;28;20017;-77
2022/01/19 08:31:20;;;;;;;19.08;9.68;;;7.60;99.90;;;;;;5071743;28;20107;-79
2022/01/19 08:33:46;;;;;;;20.75;9.02;;;7.70;99.90;;;;;;5103079;28;20303;-77
2022/01/19 08:36:11;;;;;;;21.40;9.45;;;7.70;99.90;;;;;;5080657;28;20088;-79
2022/01/19 08:38:39;;;;;;;20.08;9.73;;;7.80;99.90;;;;;;5049089;28;20068;-79
2022/01/19 08:41:04;;;;;;;17.58;9.13;;;7.70;99.90;;;;;;5080049;28;20020;-83
2022/01/19 08:43:31;;;;;;;25.88;10.70;;;7.70;99.90;;;;;;5069293;28;20027;-79
2022/01/19 08:45:57;;;;;;;22.08;10.25;;;7.70;99.90;;;;;;5082705;28;20023;-79
2022/01/19 08:48:25;;;;;;;22.40;10.45;;;7.70;99.90;;;;;;5065087;28;20017;-78
2022/01/19 08:50:54;;;;;;;20.65;10.48;;;7.70;99.90;;;;;;5086687;28;20020;-80
2022/01/19 08:53:21;;;;;;;21.73;10.85;;;7.60;99.90;;;;;;5087096;28;20020;-78
2022/01/19 08:55:50;;;;;;;19.50;10.95;;;7.60;99.90;;;;;;5065896;28;20062;-85
2022/01/19 08:58:15;;;;;;;25.95;10.98;;;7.70;99.90;;;;;;5063688;28;20283;-80
2022/01/19 09:00:43;;;;;;;23.15;10.82;;;7.80;99.90;;;;;;5058917;28;20028;-81
2022/01/19 09:03:12;;;;;;;22.17;10.07;;;7.70;99.90;;;;;;5055159;28;20079;-81
2022/01/19 09:05:38;;;;;;;22.70;10.15;;;7.80;99.90;;;;;;5064276;28;20311;-81
2022/01/19 09:08:04;;;;;;;21.05;10.43;;;7.90;99.90;;;;;;5086260;28;20024;-81
2022/01/19 09:10:30;;;;;;;20.33;9.38;;;7.90;99.90;;;;;;5068315;28;20100;-80
2022/01/19 09:12:56;;;;;;;18.02;9.07;;;8.10;99.90;;;;;;5035432;28;20021;-79
2022/01/19 09:15:23;;;;;;;20.30;9.40;;;8.10;99.90;;;;;;5086365;28;20337;-79
2022/01/19 09:17:49;;;;;;;28.88;9.98;;;8.20;99.90;;;;;;5052062;28;20017;-79
2022/01/19 09:20:16;;;;;;;16.05;9.68;;;8.20;99.90;;;;;;5052271;28;20028;-80
2022/01/19 09:22:43;;;;;;;20.52;9.38;;;8.20;99.90;;;;;;5074627;28;20016;-79
2022/01/19 09:25:10;;;;;;;15.48;7.28;;;8.30;99.90;;;;;;5088528;28;20040;-79
2022/01/19 09:27:38;;;;;;;16.27;8.27;;;8.40;99.90;;;;;;5088416;28;20016;-79
2022/01/19 09:30:07;;;;;;;15.00;6.95;;;8.50;99.90;;;;;;5066039;28;20024;-80
2022/01/19 09:32:33;;;;;;;19.67;7.90;;;8.60;99.90;;;;;;5051499;28;20027;-81
2022/01/19 09:35:06;;;;;;;19.15;6.38;;;8.60;99.90;;;;;;5068130;28;20024;-76
2022/01/19 09:37:33;;;;;;;17.98;6.22;;;8.60;99.90;;;;;;5085873;28;20184;-76
2022/01/19 09:39:59;;;;;;;16.33;6.05;;;8.70;99.90;;;;;;5049057;28;20078;-77
2022/01/19 09:42:25;;;;;;;19.02;6.28;;;8.70;99.90;;;;;;5084915;28;20334;-80
2022/01/19 09:44:52;;;;;;;18.35;6.63;;;8.60;99.90;;;;;;5071615;28;20047;-79
2022/01/19 09:47:18;;;;;;;12.70;6.47;;;8.60;99.90;;;;;;5071012;28;20024;-76
2022/01/19 09:49:44;;;;;;;16.35;7.13;;;8.50;99.90;;;;;;5078748;28;20111;-77
2022/01/19 09:52:10;;;;;;;18.98;6.88;;;8.60;99.90;;;;;;5051326;28;20062;-81
2022/01/19 09:54:36;;;;;;;15.13;6.97;;;8.60;99.90;;;;;;5068210;28;20300;-81
2022/01/19 09:57:03;;;;;;;16.10;6.88;;;8.60;99.90;;;;;;5067461;28;20055;-80
2022/01/19 09:59:29;;;;;;;21.35;7.85;;;8.70;99.90;;;;;;5050772;28;20021;-80
2022/01/19 10:02:01;;;;;;;12.35;6.95;;;8.70;99.90;;;;;;5066960;28;20219;-81
2022/01/19 10:04:30;;;;;;;16.30;6.45;;;8.70;99.90;;;;;;5051183;28;20025;-81
2022/01/19 10:07:17;;;;;;;26.80;7.05;;;8.80;99.90;;;;;;5067351;28;20047;-82
2022/01/19 10:09:54;;;;;;;16.23;7.28;;;8.80;99.90;;;;;;5050523;28;20033;-80
2022/01/19 10:18:29;;;;;;;10.40;6.28;;;9.10;99.90;;;;;;5070060;28;20251;-80
2022/01/19 10:21:16;;;;;;;18.70;7.85;;;9.20;99.90;;;;;;5065281;28;20030;-79
2022/01/19 10:23:48;;;;;;;14.45;6.40;;;9.20;99.90;;;;;;5075219;28;20025;-81
2022/01/19 10:26:15;;;;;;;;;;;9.30;99.90;;;;;;5089128;28;20090;-77
2022/01/19 10:29:03;;;;;;;12.38;7.32;;;9.40;99.90;;;;;;5077461;28;19913;-83
2022/01/19 10:31:30;;;;;;;18.13;7.72;;;9.50;99.90;;;;;;5094764;28;20020;-85
2022/01/19 10:34:16;;;;;;;16.05;7.80;;;9.50;99.90;;;;;;5071732;28;20039;-80
2022/01/19 10:36:49;;;;;;;16.48;7.60;;;9.50;99.90;;;;;;5071581;28;20024;-79
2022/01/19 10:39:17;;;;;;;12.85;7.30;;;9.60;99.90;;;;;;5083574;28;20028;-83
2022/01/19 10:42:06;;;;;;;15.27;7.05;;;9.70;99.90;;;;;;5084327;28;20024;-79
2022/01/19 10:44:46;;;;;;;20.73;8.35;;;9.80;99.90;;;;;;5053250;28;20033;-79
2022/01/19 10:47:15;;;;;;;17.15;6.93;;;9.80;99.90;;;;;;5082228;28;20203;-81
2022/01/19 10:49:57;;;;;;;15.70;7.28;;;9.80;99.90;;;;;;5068745;28;20025;-79
2022/01/19 10:52:37;;;;;;;19.85;8.48;;;9.70;99.90;;;;;;5070100;28;20023;-84
2022/01/19 10:55:06;;;;;;;12.90;7.25;;;9.60;99.90;;;;;;5086474;28;20119;-79
2022/01/19 10:57:34;;;;;;;18.15;8.52;;;9.40;99.90;;;;;;5068833;28;20016;-82
2022/01/19 11:00:31;;;;;;;14.75;7.25;;;9.30;99.90;;;;;;5067451;28;20024;-81
2022/01/19 11:03:19;;;;;;;20.15;7.75;;;9.20;99.90;;;;;;5070594;28;20069;-84
2022/01/19 11:05:47;;;;;;;17.08;7.18;;;9.20;99.90;;;;;;5082054;28;20043;-83
2022/01/19 11:08:15;;;;;;;15.73;7.43;;;9.20;99.90;;;;;;5082952;28;20020;-75
2022/01/19 11:10:41;;;;;;;16.38;7.82;;;9.20;99.90;;;;;;5066018;28;20036;-76
2022/01/19 11:13:13;;;;;;;17.65;8.85;;;9.20;99.90;;;;;;5081810;28;20353;-80
2022/01/19 11:15:41;;;;;;;18.08;7.68;;;9.30;99.90;;;;;;5082660;28;20020;-80
2022/01/19 11:18:07;;;;;;;22.33;7.55;;;9.40;99.90;;;;;;5081291;28;20032;-80
2022/01/19 11:20:41;;;;;;;16.38;7.25;;;9.50;99.90;;;;;;5064419;28;20039;-76
2022/01/19 11:23:38;;;;;;;19.15;6.50;;;9.60;99.90;;;;;;5082178;28;20028;-76
2022/01/19 11:26:09;;;;;;;15.50;6.00;;;9.70;99.90;;;;;;5098546;28;20111;-78
2022/01/19 11:28:39;;;;;;;16.80;7.03;;;9.70;99.90;;;;;;5068418;28;20045;-78
2022/01/19 11:31:09;;;;;;;16.30;6.75;;;9.70;99.90;;;;;;5085094;28;20054;-76
2022/01/19 11:33:56;;;;;;;15.57;6.47;;;9.80;99.90;;;;;;5084984;28;20306;-80
2022/01/19 11:36:42;;;;;;;18.00;5.97;;;9.80;99.90;;;;;;5069731;28;20303;-78
2022/01/19 11:39:17;;;;;;;17.30;7.28;;;9.80;99.90;;;;;;5066163;28;20311;-80
2022/01/19 11:42:00;;;;;;;19.38;7.32;;;9.80;99.90;;;;;;5076833;28;20074;-79
2022/01/19 11:44:40;;;;;;;18.30;7.03;;;9.80;99.90;;;;;;5068063;28;20252;-77
2022/01/19 11:47:29;;;;;;;23.02;7.30;;;9.90;99.90;;;;;;5068676;28;20111;-84
2022/01/19 11:50:01;;;;;;;19.30;7.72;;;10.00;99.90;;;;;;5085620;28;20023;-79
2022/01/19 11:53:05;;;;;;;22.80;6.68;;;10.00;99.90;;;;;;5067661;28;20318;-77
2022/01/19 11:55:33;;;;;;;16.48;6.10;;;10.20;99.90;;;;;;5078046;28;20036;-76
2022/01/19 11:58:17;;;;;;;15.60;6.30;;;10.40;99.90;;;;;;5103107;28;20043;-79
2022/01/19 12:00:45;;;;;;;16.63;5.90;;;10.60;99.90;;;;;;5084791;28;20026;-77
2022/01/19 12:03:32;;;;;;;14.13;5.93;;;10.70;99.90;;;;;;5084800;28;20346;-80
2022/01/19 12:05:59;;;;;;;10.25;4.72;;;10.80;99.90;;;;;;5083927;28;20028;-76
2022/01/19 12:08:38;;;;;;;12.65;5.15;;;10.80;99.90;;;;;;5068668;28;20251;-76
2022/01/19 12:11:24;;;;;;;12.73;5.47;;;10.90;99.90;;;;;;5051345;28;20016;-78
2022/01/19 12:14:35;;;;;;;17.90;5.18;;;10.90;99.90;;;;;;5071843;28;20020;-81
2022/01/19 12:17:03;;;;;;;14.73;4.47;;;11.10;99.90;;;;;;5074189;28;20246;-81
2022/01/19 12:19:40;;;;;;;11.85;4.53;;;11.20;99.90;;;;;;5070089;28;20070;-79
2022/01/19 12:22:22;;;;;;;18.77;5.18;;;11.30;99.90;;;;;;5085379;28;20051;-79
2022/01/19 12:25:01;;;;;;;14.13;3.67;;;11.40;99.90;;;;;;5079703;28;20059;-77
2022/01/19 12:27:30;;;;;;;8.98;4.13;;;11.50;99.90;;;;;;5081326;28;20020;-80
2022/01/19 12:30:06;;;;;;;14.52;4.10;;;11.60;99.90;;;;;;5081504;28;20047;-80
2022/01/19 12:32:35;;;;;;;8.50;3.67;;;11.60;99.90;;;;;;5049252;28;20031;-84
2022/01/19 12:35:11;;;;;;;12.20;4.25;;;11.60;99.90;;;;;;5065010;28;20024;-77
2022/01/19 12:37:43;;;;;;;9.27;4.10;;;11.70;99.90;;;;;;5081729;28;20020;-79
2022/01/19 12:40:37;;;;;;;7.45;4.03;;;11.70;99.90;;;;;;5047455;28;20085;-78
2022/01/19 12:43:07;;;;;;;10.75;3.70;;;11.70;99.90;;;;;;5058291;28;20036;-79
2022/01/19 12:45:53;;;;;;;10.98;3.72;;;11.80;99.90;;;;;;5064979;28;20051;-82
2022/01/19 12:48:42;;;;;;;18.52;4.15;;;11.80;99.90;;;;;;5051293;28;20020;-81
2022/01/19 12:51:40;;;;;;;14.10;4.07;;;11.70;99.90;;;;;;5082152;28;20031;-80
2022/01/19 12:54:08;;;;;;;10.98;3.83;;;11.60;99.90;;;;;;5065103;28;20046;-79
2022/01/19 12:56:35;;;;;;;10.43;4.25;;;11.50;99.90;;;;;;5064497;28;20025;-80
2022/01/19 12:59:03;;;;;;;16.00;4.20;;;11.50;99.90;;;;;;5065173;28;20062;-78
2022/01/19 13:01:30;;;;;;;9.07;4.25;;;11.60;99.90;;;;;;5064645;28;20036;-78
2022/01/19 13:03:57;;;;;;;6.25;3.10;;;11.60;99.90;;;;;;5080594;28;20032;-84
2022/01/19 13:06:31;;;;;;;6.97;3.45;;;11.60;99.90;;;;;;5082053;28;20028;-78
2022/01/19 13:09:08;;;;;;;7.15;3.15;;;11.60;99.90;;;;;;5083262;28;20032;-84
2022/01/19 13:11:42;;;;;;;6.43;2.88;;;11.60;99.90;;;;;;5081850;28;20027;-78
2022/01/19 13:14:10;;;;;;;7.57;2.15;;;11.60;99.90;;;;;;5082616;28;20025;-80
2022/01/19 13:16:41;;;;;;;8.15;2.83;;;11.70;99.90;;;;;;5069435;28;20088;-81
2022/01/19 13:19:27;;;;;;;8.55;2.67;;;11.60;99.90;;;;;;5067990;28;20020;-80
2022/01/19 13:22:07;;;;;;;3.35;1.63;;;11.60;99.90;;;;;;5071549;28;20032;-84
2022/01/19 13:24:36;;;;;;;3.90;1.67;;;11.50;99.90;;;;;;5053329;28;20044;-78
2022/01/19 13:27:06;;;;;;;4.13;1.80;;;11.40;99.90;;;;;;5085315;28;20017;-82
2022/01/19 13:29:42;;;;;;;2.70;1.42;;;11.40;99.90;;;;;;5075205;28;20116;-86
2022/01/19 13:32:18;;;;;;;4.13;1.17;;;11.30;99.90;;;;;;5086554;28;20024;-81
2022/01/19 13:35:08;;;;;;;5.15;1.17;;;11.40;99.90;;;;;;5074821;28;20343;-78
2022/01/19 13:37:46;;;;;;;5.60;0.80;;;11.40;99.90;;;;;;5071190;28;20024;-79
2022/01/19 13:40:16;;;;;;;3.47;0.73;;;11.30;98.20;;;;;;5069964;28;20020;-77
2022/01/19 13:42:47;;;;;;;6.82;1.25;;;11.30;98.00;;;;;;5088030;28;20023;-76
2022/01/19 13:45:28;;;;;;;4.85;0.60;;;11.30;98.00;;;;;;5071083;28;20024;-76
2022/01/19 13:48:06;;;;;;;7.78;1.42;;;11.30;97.30;;;;;;5073824;28;20318;-78
2022/01/19 13:50:33;;;;;;;4.07;0.80;;;11.30;97.60;;;;;;5057000;28;20024;-78
2022/01/19 13:53:00;;;;;;;3.50;0.55;;;11.40;97.50;;;;;;5070942;28;20083;-80
2022/01/19 13:55:26;;;;;;;4.47;0.80;;;11.40;97.20;;;;;;5087087;28;20024;-77
2022/01/19 13:58:04;;;;;;;6.28;0.70;;;11.50;97.00;;;;;;5086508;28;20295;-76
2022/01/19 14:00:29;;;;;;;2.38;0.68;;;11.60;96.60;;;;;;5087794;28;20047;-75
2022/01/19 14:03:02;;;;;;;6.05;1.05;;;11.70;96.20;;;;;;5087248;28;20020;-73
2022/01/19 14:05:42;;;;;;;4.55;0.88;;;11.80;96.10;;;;;;5071696;28;20027;-75
2022/01/19 14:08:09;;;;;;;3.63;1.23;;;11.90;96.10;;;;;;5088410;28;20023;-74
2022/01/19 14:10:45;;;;;;;5.38;0.80;;;12.00;96.60;;;;;;5087099;28;20082;-74
2022/01/19 14:13:32;;;;;;;5.30;1.02;;;11.70;97.10;;;;;;5070743;28;20027;-74
2022/01/19 14:16:25;;;;;;;5.15;1.30;;;11.60;97.50;;;;;;5073784;28;20099;-76
2022/01/19 14:19:14;;;;;;;10.65;1.17;;;11.30;97.50;;;;;;5074752;28;20028;-76
2022/01/19 14:22:17;;;;;;;7.80;1.30;;;11.20;97.90;;;;;;5066832;28;20036;-75
2022/01/19 14:25:05;;;;;;;7.72;1.50;;;11.10;97.90;;;;;;5084123;28;20227;-74